createdAt,value
2022-12-18T00:00:06.672Z,49.13
2022-12-18T00:02:36.597Z,43.17
2022-12-18T00:05:05.245Z,38.57
2022-12-18T00:07:33.647Z,50.87
2022-12-18T00:10:02.006Z,41.00
2022-12-18T00:12:30.531Z,47.80
2022-12-18T00:14:58.910Z,41.47
2022-12-18T00:17:27.360Z,39.27
2022-12-18T00:19:57.143Z,49.73
2022-12-18T00:22:25.563Z,45.37
2022-12-18T00:24:54.005Z,40.10
2022-12-18T00:27:22.423Z,47.53
2022-12-18T00:29:51.135Z,49.87
2022-12-18T00:32:19.570Z,44.60
2022-12-18T00:34:47.977Z,51.03
2022-12-18T00:37:20.202Z,45.40
2022-12-18T00:39:51.263Z,45.27
2022-12-18T00:42:37.357Z,41.30
2022-12-18T00:45:12.096Z,42.37
2022-12-18T00:47:41.269Z,43.50
2022-12-18T00:50:10.388Z,44.73
2022-12-18T00:52:40.246Z,39.43
2022-12-18T00:55:09.134Z,44.50
2022-12-18T00:57:37.605Z,40.57
2022-12-18T01:00:06.256Z,41.37
2022-12-18T01:02:34.819Z,54.83
2022-12-18T01:05:03.280Z,41.20
2022-12-18T01:07:31.845Z,42.93
2022-12-18T01:10:01.777Z,36.57
2022-12-18T01:12:30.212Z,36.57
2022-12-18T01:14:58.680Z,39.20
2022-12-18T01:17:27.063Z,44.77
2022-12-18T01:19:55.474Z,45.83
2022-12-18T01:22:23.884Z,41.07
2022-12-18T01:24:52.321Z,36.37
2022-12-18T01:27:22.121Z,47.53
2022-12-18T01:29:50.561Z,40.37
2022-12-18T01:32:18.937Z,50.37
2022-12-18T01:34:47.433Z,46.73
2022-12-18T01:37:15.812Z,47.50
2022-12-18T01:39:44.255Z,45.07
2022-12-18T01:42:14.793Z,37.57
2022-12-18T01:45:04.304Z,39.90
2022-12-18T01:47:36.497Z,40.30
2022-12-18T01:50:07.082Z,40.40
2022-12-18T01:52:35.953Z,38.90
2022-12-18T01:55:05.401Z,45.97
2022-12-18T01:57:33.913Z,39.10
2022-12-18T02:00:03.620Z,42.67
2022-12-18T02:02:32.693Z,41.93
2022-12-18T02:05:03.158Z,44.13
2022-12-18T02:07:35.566Z,35.73
2022-12-18T02:10:06.897Z,41.00
2022-12-18T02:12:38.935Z,40.43
2022-12-18T02:15:09.928Z,42.20
2022-12-18T02:17:40.129Z,68.53
2022-12-18T02:20:16.027Z,46.97
2022-12-18T02:22:49.041Z,46.43
2022-12-18T02:25:27.419Z,46.00
2022-12-18T02:27:58.775Z,37.20
2022-12-18T02:30:27.563Z,53.87
2022-12-18T02:32:57.341Z,50.77
2022-12-18T02:35:26.957Z,45.43
2022-12-18T02:37:56.220Z,40.00
2022-12-18T02:40:26.385Z,51.57
2022-12-18T02:42:54.899Z,44.63
2022-12-18T02:45:24.701Z,49.53
2022-12-18T02:47:53.145Z,44.03
2022-12-18T02:50:25.504Z,47.50
2022-12-18T02:53:01.895Z,44.83
2022-12-18T02:55:34.098Z,47.70
2022-12-18T02:58:07.035Z,49.00
2022-12-18T03:00:40.336Z,50.67
2022-12-18T03:03:10.801Z,44.47
2022-12-18T03:05:41.527Z,33.70
2022-12-18T03:08:11.332Z,34.27
2022-12-18T03:10:44.044Z,35.33
2022-12-18T03:13:15.040Z,35.27
2022-12-18T03:15:46.990Z,36.80
2022-12-18T03:18:17.866Z,42.07
2022-12-18T03:20:47.513Z,41.27
2022-12-18T03:23:18.066Z,36.07
2022-12-18T03:25:47.361Z,35.20
2022-12-18T03:28:16.724Z,36.33
2022-12-18T03:30:47.371Z,46.93
2022-12-18T03:33:20.689Z,38.87
2022-12-18T03:35:49.425Z,39.43
2022-12-18T03:38:17.993Z,38.13
2022-12-18T03:40:53.132Z,48.20
2022-12-18T03:43:27.344Z,38.33
2022-12-18T03:46:00.900Z,41.97
2022-12-18T03:48:31.205Z,35.80
2022-12-18T03:51:02.415Z,35.47
2022-12-18T03:53:35.737Z,41.27
2022-12-18T03:56:05.047Z,38.60
2022-12-18T03:58:34.660Z,32.77
2022-12-18T04:01:05.345Z,40.47
2022-12-18T04:03:36.337Z,41.93
2022-12-18T04:06:05.801Z,38.37
2022-12-18T04:08:35.739Z,37.40
2022-12-18T04:11:04.663Z,40.73
2022-12-18T04:13:36.076Z,39.83
2022-12-18T04:16:06.356Z,42.03
2022-12-18T04:18:34.850Z,47.90
2022-12-18T04:21:03.286Z,32.83
2022-12-18T04:23:31.658Z,42.93
2022-12-18T04:26:00.086Z,50.00
2022-12-18T04:28:28.581Z,34.37
2022-12-18T04:30:57.109Z,39.97
2022-12-18T04:33:27.014Z,47.20
2022-12-18T04:35:55.397Z,40.77
2022-12-18T04:38:23.927Z,40.73
2022-12-18T04:40:52.367Z,47.27
2022-12-18T04:43:20.925Z,47.00
2022-12-18T04:45:49.430Z,47.40
2022-12-18T04:48:17.857Z,56.73
2022-12-18T04:50:47.670Z,44.40
2022-12-18T04:53:16.105Z,48.53
2022-12-18T04:55:44.576Z,54.57
2022-12-18T04:58:13.015Z,71.97
2022-12-18T05:00:41.561Z,52.50
2022-12-18T05:03:09.975Z,51.33
2022-12-18T05:05:38.438Z,45.90
2022-12-18T05:08:08.414Z,51.53
2022-12-18T05:10:38.469Z,53.77
2022-12-18T05:13:07.072Z,51.60
2022-12-18T05:15:35.968Z,49.83
2022-12-18T05:18:05.246Z,44.27
2022-12-18T05:20:34.008Z,51.80
2022-12-18T05:23:02.422Z,44.87
2022-12-18T05:25:32.234Z,38.63
2022-12-18T05:28:00.650Z,49.37
2022-12-18T05:30:29.593Z,49.70
2022-12-18T05:32:58.020Z,37.80
2022-12-18T05:35:26.549Z,44.40
2022-12-18T05:37:54.970Z,52.00
2022-12-18T05:40:23.403Z,51.63
2022-12-18T05:42:53.240Z,52.43
2022-12-18T05:45:22.158Z,44.57
2022-12-18T05:47:50.562Z,49.10
2022-12-18T05:50:19.018Z,41.97
2022-12-18T05:52:47.390Z,47.97
2022-12-18T05:55:15.806Z,46.50
2022-12-18T05:57:44.243Z,46.37
2022-12-18T06:00:15.353Z,43.83
2022-12-18T06:02:43.850Z,45.27
2022-12-18T06:05:12.398Z,42.77
2022-12-18T06:07:40.844Z,39.67
2022-12-18T06:10:09.658Z,53.63
2022-12-18T06:12:38.068Z,43.27
2022-12-18T06:15:07.757Z,43.57
2022-12-18T06:17:38.073Z,43.83
2022-12-18T06:20:07.960Z,44.83
2022-12-18T06:22:37.076Z,48.97
2022-12-18T06:25:06.983Z,43.57
2022-12-18T06:27:36.473Z,41.53
2022-12-18T06:30:05.044Z,40.00
2022-12-18T06:32:33.549Z,37.97
2022-12-18T06:35:03.329Z,44.53
2022-12-18T06:37:33.418Z,42.83
2022-12-18T06:40:02.027Z,37.83
2022-12-18T06:42:31.205Z,39.77
2022-12-18T06:44:59.758Z,40.63
2022-12-18T06:47:28.169Z,36.77
2022-12-18T06:49:56.563Z,35.17
2022-12-18T06:52:26.334Z,44.43
2022-12-18T06:54:54.711Z,41.57
2022-12-18T06:57:23.116Z,39.20
2022-12-18T06:59:51.536Z,39.40
2022-12-18T07:02:20.116Z,45.00
2022-12-18T07:04:48.574Z,43.80
2022-12-18T07:07:16.945Z,36.03
2022-12-18T07:09:46.793Z,38.47
2022-12-18T07:12:15.236Z,41.97
2022-12-18T07:14:43.695Z,39.57
2022-12-18T07:17:12.144Z,38.53
2022-12-18T07:19:40.607Z,38.93
2022-12-18T07:22:09.047Z,47.93
2022-12-18T07:24:37.463Z,39.27
2022-12-18T07:27:07.296Z,41.47
2022-12-18T07:29:36.443Z,43.63
2022-12-18T07:32:04.940Z,43.87
2022-12-18T07:34:33.383Z,48.07
2022-12-18T07:37:01.787Z,43.07
2022-12-18T07:39:30.181Z,47.50
2022-12-18T07:42:16.102Z,37.70
2022-12-18T07:44:45.912Z,41.07
2022-12-18T07:47:14.304Z,40.43
2022-12-18T07:49:42.711Z,38.80
2022-12-18T07:52:13.337Z,40.43
2022-12-18T07:54:41.906Z,37.10
2022-12-18T07:57:33.726Z,38.53
2022-12-18T08:00:00.669Z,40.63
2022-12-18T08:02:29.173Z,37.67
2022-12-18T08:04:57.654Z,49.23
2022-12-18T08:07:26.100Z,38.93
2022-12-18T08:09:54.508Z,44.33
2022-12-18T08:12:22.952Z,46.03
2022-12-18T08:14:51.374Z,41.23
2022-12-18T08:17:21.971Z,40.80
2022-12-18T08:19:50.381Z,36.60
2022-12-18T08:22:19.946Z,39.10
2022-12-18T08:24:48.357Z,41.13
2022-12-18T08:27:31.972Z,35.17
2022-12-18T08:30:01.044Z,37.30
2022-12-18T08:32:30.994Z,39.17
2022-12-18T08:34:59.615Z,44.10
2022-12-18T08:37:27.994Z,35.47
2022-12-18T08:39:56.377Z,43.27
2022-12-18T08:42:42.531Z,45.37
2022-12-18T08:45:11.529Z,53.23
2022-12-18T08:47:41.422Z,41.60
2022-12-18T08:50:10.145Z,35.17
2022-12-18T08:52:38.563Z,36.03
2022-12-18T08:55:07.484Z,36.30
2022-12-18T08:57:35.886Z,38.13
2022-12-18T09:00:04.572Z,35.97
2022-12-18T09:02:33.078Z,40.23
2022-12-18T09:05:02.909Z,36.00
2022-12-18T09:07:31.404Z,40.23
2022-12-18T09:09:59.825Z,35.03
2022-12-18T09:12:28.242Z,38.53
2022-12-18T09:14:57.309Z,40.27
2022-12-18T09:17:25.838Z,34.60
2022-12-18T09:19:54.308Z,38.43
2022-12-18T09:22:24.121Z,33.83
2022-12-18T09:24:52.548Z,40.43
2022-12-18T09:27:20.926Z,87.23
2022-12-18T09:29:49.448Z,50.37
2022-12-18T09:32:22.361Z,51.97
2022-12-18T09:34:51.363Z,39.60
2022-12-18T09:37:19.806Z,46.33
2022-12-18T09:39:49.599Z,37.40
2022-12-18T09:42:22.735Z,34.47
2022-12-18T09:44:53.189Z,40.00
2022-12-18T09:47:24.071Z,38.57
2022-12-18T09:49:54.643Z,30.87
2022-12-18T09:52:26.675Z,32.37
2022-12-18T09:54:57.805Z,31.83
2022-12-18T09:57:26.855Z,30.67
2022-12-18T09:59:57.799Z,35.53
2022-12-18T10:02:27.380Z,36.90
2022-12-18T10:05:03.665Z,35.57
2022-12-18T10:07:35.875Z,33.60
2022-12-18T10:10:07.965Z,39.83
2022-12-18T10:12:40.895Z,35.77
2022-12-18T10:15:14.429Z,38.90
2022-12-18T10:17:46.141Z,35.63
2022-12-18T10:20:19.075Z,36.03
2022-12-18T10:22:53.483Z,35.03
2022-12-18T10:25:25.644Z,37.67
2022-12-18T10:27:56.294Z,38.80
2022-12-18T10:30:25.792Z,36.53
2022-12-18T10:32:55.182Z,40.23
2022-12-18T10:35:24.713Z,38.07
2022-12-18T10:38:03.115Z,36.87
2022-12-18T10:40:33.558Z,38.40
2022-12-18T10:43:09.152Z,40.47
2022-12-18T10:45:37.583Z,38.03
2022-12-18T10:48:06.361Z,30.03
2022-12-18T10:51:09.076Z,33.47
2022-12-18T10:53:26.949Z,39.37
2022-12-18T10:55:57.364Z,36.60
2022-12-18T10:58:27.129Z,35.70
2022-12-18T11:01:07.142Z,41.60
2022-12-18T11:03:37.609Z,35.83
2022-12-18T11:06:07.526Z,33.77
2022-12-18T11:08:36.267Z,40.17
2022-12-18T11:11:07.073Z,46.00
2022-12-18T11:13:35.596Z,41.53
2022-12-18T11:16:04.114Z,52.80
2022-12-18T11:18:33.416Z,48.03
2022-12-18T11:21:02.596Z,46.07
2022-12-18T11:23:31.064Z,49.07
2022-12-18T11:26:00.626Z,51.37
2022-12-18T11:28:32.003Z,50.90
2022-12-18T11:31:24.169Z,46.97
2022-12-18T11:36:52.529Z,44.13
2022-12-18T11:39:22.621Z,39.17
2022-12-18T11:42:13.524Z,47.23
2022-12-18T11:44:46.002Z,44.53
2022-12-18T11:47:18.546Z,41.93
2022-12-18T11:49:47.028Z,41.13
2022-12-18T11:52:18.621Z,44.63
2022-12-18T11:54:47.114Z,36.43
2022-12-18T11:57:19.422Z,37.77
2022-12-18T11:59:53.764Z,39.67
2022-12-18T12:02:33.003Z,41.93
2022-12-18T12:05:08.088Z,37.67
2022-12-18T12:07:41.981Z,38.80
2022-12-18T12:10:19.649Z,34.13
2022-12-18T12:12:56.021Z,33.33
2022-12-18T12:15:31.166Z,31.43
2022-12-18T12:18:08.290Z,33.03
2022-12-18T12:20:45.088Z,33.30
2022-12-18T12:23:18.135Z,38.53
2022-12-18T12:25:49.555Z,37.40
2022-12-18T12:28:22.099Z,33.00
2022-12-18T12:30:58.772Z,32.67
2022-12-18T12:33:34.757Z,30.10
2022-12-18T12:36:08.037Z,30.87
2022-12-18T12:38:38.362Z,31.50
2022-12-18T12:41:29.647Z,29.97
2022-12-18T12:43:58.107Z,34.93
2022-12-18T12:46:28.882Z,34.10
2022-12-18T12:48:58.573Z,36.17
2022-12-18T12:51:29.136Z,39.57
2022-12-18T12:53:59.210Z,34.73
2022-12-18T12:56:30.720Z,32.10
2022-12-18T12:59:05.133Z,33.70
2022-12-18T13:01:40.364Z,37.93
2022-12-18T13:04:16.355Z,35.20
2022-12-18T13:06:48.836Z,34.00
2022-12-18T13:09:17.413Z,30.60
2022-12-18T13:12:04.359Z,38.60
2022-12-18T13:14:34.710Z,35.60
2022-12-18T13:17:28.511Z,33.07
2022-12-18T13:20:06.440Z,33.70
2022-12-18T13:22:37.934Z,33.23
2022-12-18T13:25:27.194Z,32.40
2022-12-18T13:28:06.334Z,35.57
2022-12-18T13:30:48.513Z,31.27
2022-12-18T13:34:24.537Z,31.70
2022-12-18T13:36:40.944Z,29.03
2022-12-18T13:43:01.065Z,32.10
2022-12-18T13:45:39.892Z,35.47
2022-12-18T13:48:17.450Z,31.03
2022-12-18T13:50:46.427Z,29.43
2022-12-18T13:53:21.108Z,31.67
2022-12-18T13:55:51.989Z,39.27
2022-12-18T13:58:20.707Z,39.37
2022-12-18T14:00:49.800Z,29.47
2022-12-18T14:03:23.072Z,29.20
2022-12-18T14:05:56.431Z,30.33
2022-12-18T14:08:31.992Z,30.50
2022-12-18T14:11:00.514Z,28.10
2022-12-18T14:13:30.976Z,26.17
2022-12-18T14:16:00.984Z,33.53
2022-12-18T14:18:34.233Z,31.40
2022-12-18T14:21:04.083Z,30.00
2022-12-18T14:23:35.202Z,34.30
2022-12-18T14:26:06.311Z,29.70
2022-12-18T14:28:35.006Z,25.90
2022-12-18T14:31:03.495Z,29.77
2022-12-18T14:33:31.996Z,28.10
2022-12-18T14:36:01.625Z,29.27
2022-12-18T14:38:31.893Z,30.17
2022-12-18T14:41:04.067Z,28.63
2022-12-18T14:43:34.622Z,28.13
2022-12-18T14:46:03.672Z,26.47
2022-12-18T14:48:40.420Z,29.20
2022-12-18T14:51:09.931Z,33.10
2022-12-18T14:53:40.424Z,30.70
2022-12-18T14:56:20.942Z,35.77
2022-12-18T14:58:50.361Z,27.30
2022-12-18T15:01:23.935Z,33.07
2022-12-18T15:03:53.323Z,32.87
2022-12-18T15:06:28.652Z,28.63
2022-12-18T15:08:57.471Z,31.27
2022-12-18T15:11:31.974Z,30.23
2022-12-18T15:14:01.756Z,28.70
2022-12-18T15:16:30.266Z,30.27
2022-12-18T15:18:58.738Z,32.20
2022-12-18T15:21:31.544Z,30.87
2022-12-18T15:23:59.979Z,30.53
2022-12-18T15:26:28.474Z,27.93
2022-12-18T15:28:59.595Z,29.57
2022-12-18T15:31:32.204Z,31.60
2022-12-18T15:34:18.512Z,29.67
2022-12-18T15:36:46.930Z,30.93
2022-12-18T15:39:15.782Z,35.97
2022-12-18T15:42:04.499Z,34.40
2022-12-18T15:44:33.551Z,31.23
2022-12-18T15:47:01.991Z,26.97
2022-12-18T15:49:30.456Z,30.10
2022-12-18T15:52:00.386Z,30.43
2022-12-18T15:54:46.374Z,27.80
2022-12-18T15:57:27.513Z,28.27
2022-12-18T15:59:59.403Z,26.43
2022-12-18T16:02:29.364Z,29.93
2022-12-18T16:04:58.155Z,27.23
2022-12-18T16:07:29.214Z,27.87
2022-12-18T16:10:00.848Z,26.13
2022-12-18T16:12:31.075Z,29.83
2022-12-18T16:15:01.000Z,31.67
2022-12-18T16:17:29.472Z,36.53
2022-12-18T16:19:58.372Z,31.53
2022-12-18T16:22:28.204Z,29.10
2022-12-18T16:24:57.164Z,28.77
2022-12-18T16:27:26.199Z,28.47
2022-12-18T16:29:54.849Z,33.40
2022-12-18T16:32:24.962Z,30.00
2022-12-18T16:34:53.647Z,30.60
2022-12-18T16:37:22.029Z,29.30
2022-12-18T16:39:50.355Z,27.43
2022-12-18T16:42:20.321Z,29.60
2022-12-18T16:44:49.486Z,30.07
2022-12-18T16:47:18.147Z,32.13
2022-12-18T16:49:51.557Z,29.43
2022-12-18T16:52:20.079Z,29.20
2022-12-18T16:54:48.607Z,31.73
2022-12-18T16:57:18.330Z,28.73
2022-12-18T16:59:46.886Z,29.83
2022-12-18T17:02:17.161Z,30.53
2022-12-18T17:04:49.206Z,27.70
2022-12-18T17:07:17.956Z,29.77
2022-12-18T17:09:46.465Z,31.73
2022-12-18T17:12:14.949Z,29.20
2022-12-18T17:14:43.335Z,41.73
2022-12-18T17:17:26.936Z,30.83
2022-12-18T17:19:56.775Z,31.63
2022-12-18T17:22:25.227Z,35.87
2022-12-18T17:24:54.626Z,38.70
2022-12-18T17:27:23.047Z,38.80
2022-12-18T17:29:52.417Z,36.57
2022-12-18T17:32:21.106Z,38.13
2022-12-18T17:34:49.543Z,39.47
2022-12-18T17:37:19.313Z,46.17
2022-12-18T17:39:47.721Z,45.07
2022-12-18T17:42:16.123Z,42.60
2022-12-18T17:44:44.832Z,59.67
2022-12-18T17:47:13.443Z,45.27
2022-12-18T17:49:41.972Z,54.73
2022-12-18T17:52:10.516Z,65.47
2022-12-18T17:54:42.057Z,46.23
2022-12-18T17:57:10.736Z,43.63
2022-12-18T17:59:39.401Z,34.47
2022-12-18T18:02:08.032Z,36.27
2022-12-18T18:04:37.013Z,36.10
2022-12-18T18:07:05.404Z,34.87
2022-12-18T18:09:33.875Z,35.80
2022-12-18T18:12:17.534Z,35.77
2022-12-18T18:14:46.105Z,32.50
2022-12-18T18:17:14.638Z,33.37
2022-12-18T18:19:43.241Z,35.40
2022-12-18T18:22:14.357Z,32.37
2022-12-18T18:24:43.698Z,34.50
2022-12-18T18:27:13.499Z,35.00
2022-12-18T18:29:41.919Z,35.73
2022-12-18T18:32:10.391Z,38.73
2022-12-18T18:34:39.065Z,40.23
2022-12-18T18:37:07.879Z,40.97
2022-12-18T18:39:36.335Z,39.20
2022-12-18T18:42:04.837Z,39.33
2022-12-18T18:44:35.251Z,36.83
2022-12-18T18:47:03.645Z,45.40
2022-12-18T18:49:35.305Z,45.27
2022-12-18T18:52:03.667Z,38.13
2022-12-18T18:54:32.099Z,38.50
2022-12-18T18:57:30.799Z,35.33
2022-12-18T18:59:50.390Z,34.13
2022-12-18T19:02:19.074Z,32.80
2022-12-18T19:04:47.826Z,28.47
2022-12-18T19:07:29.765Z,34.13
2022-12-18T19:10:04.124Z,30.57
2022-12-18T19:12:47.260Z,34.73
2022-12-18T19:15:17.097Z,34.40
2022-12-18T19:17:47.446Z,33.60
2022-12-18T19:20:16.683Z,30.67
2022-12-18T19:22:54.767Z,35.80
2022-12-18T19:25:30.685Z,45.67
2022-12-18T19:28:14.392Z,51.30
2022-12-18T19:30:56.385Z,38.10
2022-12-18T19:33:43.738Z,34.13
2022-12-18T19:36:13.570Z,43.17
2022-12-18T19:38:45.218Z,37.87
2022-12-18T19:41:15.147Z,39.27
2022-12-18T19:43:43.580Z,39.60
2022-12-18T19:46:15.342Z,36.63
2022-12-18T19:48:45.068Z,41.10
2022-12-18T19:51:15.682Z,43.53
2022-12-18T19:53:44.159Z,38.53
2022-12-18T19:56:13.499Z,37.77
2022-12-18T19:58:42.517Z,40.10
2022-12-18T20:01:11.259Z,38.60
2022-12-18T20:03:42.922Z,35.40
2022-12-18T20:06:16.433Z,34.13
2022-12-18T20:08:44.883Z,33.23
2022-12-18T20:11:13.304Z,40.43
2022-12-18T20:13:42.004Z,34.83
2022-12-18T20:16:10.857Z,31.93
2022-12-18T20:18:39.914Z,31.87
2022-12-18T20:21:13.846Z,35.23
2022-12-18T20:23:43.300Z,36.23
2022-12-18T20:26:12.665Z,32.70
2022-12-18T20:28:42.599Z,29.20
2022-12-18T20:31:13.393Z,25.93
2022-12-18T20:33:43.313Z,28.60
2022-12-18T20:36:22.509Z,28.93
2022-12-18T20:38:57.195Z,30.23
2022-12-18T20:41:36.457Z,29.93
2022-12-18T20:44:17.742Z,31.80
2022-12-18T20:46:50.929Z,26.13
2022-12-18T20:49:19.347Z,32.93
2022-12-18T20:51:51.098Z,33.40
2022-12-18T20:54:19.623Z,37.73
2022-12-18T20:56:48.300Z,32.63
2022-12-18T20:59:16.866Z,32.60
2022-12-18T21:01:48.877Z,34.77
2022-12-18T21:04:18.296Z,26.93
2022-12-18T21:06:52.977Z,27.47
2022-12-18T21:09:30.373Z,35.30
2022-12-18T21:12:24.371Z,35.67
2022-12-18T21:14:52.915Z,32.20
2022-12-18T21:17:21.381Z,36.23
2022-12-18T21:19:49.775Z,37.57
2022-12-18T21:22:20.014Z,37.70
2022-12-18T21:24:48.528Z,30.90
2022-12-18T21:27:18.017Z,24.37
2022-12-18T21:29:47.085Z,29.83
2022-12-18T21:32:15.581Z,22.40
2022-12-18T21:34:48.029Z,28.60
2022-12-18T21:37:16.915Z,28.07
2022-12-18T21:39:48.540Z,28.83
2022-12-18T21:42:42.965Z,28.97
2022-12-18T21:45:12.132Z,36.47
2022-12-18T21:47:40.508Z,31.50
2022-12-18T21:50:09.182Z,45.07
2022-12-18T21:52:37.580Z,32.43
2022-12-18T21:55:09.986Z,28.37
2022-12-18T21:57:39.599Z,21.50
2022-12-18T22:00:09.081Z,21.57
2022-12-18T22:02:37.658Z,24.20
2022-12-18T22:05:06.463Z,20.17
2022-12-18T22:07:35.452Z,22.93
2022-12-18T22:10:03.880Z,23.67
2022-12-18T22:12:42.913Z,20.83
2022-12-18T22:15:21.081Z,22.60
2022-12-18T22:17:50.245Z,17.27
2022-12-18T22:20:20.163Z,21.63
2022-12-18T22:22:51.690Z,22.50
2022-12-18T22:25:20.210Z,29.77
2022-12-18T22:28:03.823Z,29.40
2022-12-18T22:30:32.247Z,29.73
2022-12-18T22:33:01.360Z,27.37
2022-12-18T22:35:29.807Z,29.40
2022-12-18T22:37:59.870Z,25.30
2022-12-18T22:40:28.807Z,24.07
2022-12-18T22:42:58.626Z,20.40
2022-12-18T22:45:27.905Z,22.67
2022-12-18T22:47:56.440Z,28.50
2022-12-18T22:50:24.926Z,27.00
2022-12-18T22:52:53.338Z,31.53
2022-12-18T22:55:21.723Z,28.37
2022-12-18T22:57:50.908Z,28.27
2022-12-18T23:00:24.356Z,28.13
2022-12-18T23:02:59.448Z,30.23
2022-12-18T23:05:28.713Z,29.60
2022-12-18T23:07:57.133Z,30.50
2022-12-18T23:10:25.525Z,27.83
2022-12-18T23:12:53.958Z,31.07
2022-12-18T23:15:28.246Z,26.37
2022-12-18T23:17:57.394Z,29.60
2022-12-18T23:20:26.029Z,30.77
2022-12-18T23:22:54.531Z,25.63
2022-12-18T23:25:22.944Z,31.23
2022-12-18T23:27:51.423Z,26.13
2022-12-18T23:30:19.940Z,32.17
2022-12-18T23:32:49.746Z,35.67
2022-12-18T23:35:18.566Z,33.60
2022-12-18T23:38:03.931Z,29.60
2022-12-18T23:40:32.463Z,27.20
2022-12-18T23:43:01.341Z,31.97
2022-12-18T23:45:29.825Z,35.93
2022-12-18T23:47:59.683Z,31.10
2022-12-18T23:50:29.937Z,30.80
2022-12-18T23:53:05.036Z,28.90
2022-12-18T23:55:34.301Z,28.43
2022-12-18T23:58:02.738Z,37.40
